sensor_id;sensor_type;location;lat;lon;timestamp;temperature;humidity
16881;DHT22;8557;52.068;5.198;2023-02-26T00:01:44;2.80;99.90
16881;DHT22;8557;52.068;5.198;2023-02-26T00:04:15;2.70;99.90
16881;DHT22;8557;52.068;5.198;2023-02-26T00:06:42;2.70;99.90
16881;DHT22;8557;52.068;5.198;2023-02-26T00:09:18;2.80;99.90
16881;DHT22;8557;52.068;5.198;2023-02-26T00:11:46;2.80;99.90
16881;DHT22;8557;52.068;5.198;2023-02-26T00:14:14;2.90;99.90
16881;DHT22;8557;52.068;5.198;2023-02-26T00:16:42;3.00;99.90
16881;DHT22;8557;52.068;5.198;2023-02-26T00:19:13;3.00;99.90
16881;DHT22;8557;52.068;5.198;2023-02-26T00:21:42;3.10;99.90
16881;DHT22;8557;52.068;5.198;2023-02-26T00:24:11;3.10;99.90
16881;DHT22;8557;52.068;5.198;2023-02-26T00:26:40;3.10;99.90
16881;DHT22;8557;52.068;5.198;2023-02-26T00:29:08;3.10;99.90
16881;DHT22;8557;52.068;5.198;2023-02-26T00:31:35;3.00;99.90
16881;DHT22;8557;52.068;5.198;2023-02-26T00:34:02;3.00;99.90
16881;DHT22;8557;52.068;5.198;2023-02-26T00:36:36;2.90;99.90
16881;DHT22;8557;52.068;5.198;2023-02-26T00:39:12;3.00;99.90
16881;DHT22;8557;52.068;5.198;2023-02-26T00:41:42;2.80;99.90
16881;DHT22;8557;52.068;5.198;2023-02-26T00:44:09;2.80;99.90
16881;DHT22;8557;52.068;5.198;2023-02-26T00:46:42;2.80;99.90
16881;DHT22;8557;52.068;5.198;2023-02-26T00:49:20;2.80;99.90
16881;DHT22;8557;52.068;5.198;2023-02-26T00:51:51;2.80;99.90
16881;DHT22;8557;52.068;5.198;2023-02-26T00:54:22;2.80;99.90
16881;DHT22;8557;52.068;5.198;2023-02-26T00:56:51;2.80;99.90
16881;DHT22;8557;52.068;5.198;2023-02-26T00:59:18;2.80;99.90
16881;DHT22;8557;52.068;5.198;2023-02-26T01:01:46;2.70;99.90
16881;DHT22;8557;52.068;5.198;2023-02-26T01:04:14;2.70;99.90
16881;DHT22;8557;52.068;5.198;2023-02-26T01:06:44;2.60;99.90
16881;DHT22;8557;52.068;5.198;2023-02-26T01:09:16;2.50;99.90
16881;DHT22;8557;52.068;5.198;2023-02-26T01:11:49;2.40;99.90
16881;DHT22;8557;52.068;5.198;2023-02-26T01:14:17;2.40;99.90
16881;DHT22;8557;52.068;5.198;2023-02-26T01:16:50;2.30;99.90
16881;DHT22;8557;52.068;5.198;2023-02-26T01:19:24;2.40;99.90
16881;DHT22;8557;52.068;5.198;2023-02-26T01:21:59;2.30;99.90
16881;DHT22;8557;52.068;5.198;2023-02-26T01:24:29;2.30;99.90
16881;DHT22;8557;52.068;5.198;2023-02-26T01:26:58;2.20;99.90
16881;DHT22;8557;52.068;5.198;2023-02-26T01:29:25;2.20;99.90
16881;DHT22;8557;52.068;5.198;2023-02-26T01:31:58;2.10;99.90
16881;DHT22;8557;52.068;5.198;2023-02-26T01:34:33;2.10;99.90
16881;DHT22;8557;52.068;5.198;2023-02-26T01:37:06;2.00;99.90
16881;DHT22;8557;52.068;5.198;2023-02-26T01:39:39;2.00;99.90
16881;DHT22;8557;52.068;5.198;2023-02-26T01:42:15;2.00;99.90
16881;DHT22;8557;52.068;5.198;2023-02-26T01:44:52;2.00;99.90
16881;DHT22;8557;52.068;5.198;2023-02-26T01:47:27;2.00;99.90
16881;DHT22;8557;52.068;5.198;2023-02-26T01:49:55;2.10;99.90
16881;DHT22;8557;52.068;5.198;2023-02-26T01:55:26;2.00;99.90
16881;DHT22;8557;52.068;5.198;2023-02-26T01:57:57;1.90;99.90
16881;DHT22;8557;52.068;5.198;2023-02-26T02:00:24;1.80;99.90
16881;DHT22;8557;52.068;5.198;2023-02-26T02:02:51;1.70;99.90
16881;DHT22;8557;52.068;5.198;2023-02-26T02:05:24;1.70;99.90
16881;DHT22;8557;52.068;5.198;2023-02-26T02:07:53;1.80;99.90
16881;DHT22;8557;52.068;5.198;2023-02-26T02:10:21;1.80;99.90
16881;DHT22;8557;52.068;5.198;2023-02-26T02:12:53;1.80;99.90
16881;DHT22;8557;52.068;5.198;2023-02-26T02:15:29;1.80;99.90
16881;DHT22;8557;52.068;5.198;2023-02-26T02:18:03;1.70;99.90
16881;DHT22;8557;52.068;5.198;2023-02-26T02:20:56;1.70;99.90
16881;DHT22;8557;52.068;5.198;2023-02-26T02:23:30;1.70;99.90
16881;DHT22;8557;52.068;5.198;2023-02-26T02:26:18;1.60;99.90
16881;DHT22;8557;52.068;5.198;2023-02-26T02:29:27;1.60;99.90
16881;DHT22;8557;52.068;5.198;2023-02-26T02:32:00;1.50;99.90
16881;DHT22;8557;52.068;5.198;2023-02-26T02:34:33;1.40;99.90
16881;DHT22;8557;52.068;5.198;2023-02-26T02:37:06;1.50;99.90
16881;DHT22;8557;52.068;5.198;2023-02-26T02:39:42;1.50;99.90
16881;DHT22;8557;52.068;5.198;2023-02-26T02:42:19;1.40;99.90
16881;DHT22;8557;52.068;5.198;2023-02-26T02:44:50;1.50;99.90
16881;DHT22;8557;52.068;5.198;2023-02-26T02:47:21;1.40;99.90
16881;DHT22;8557;52.068;5.198;2023-02-26T02:49:52;1.40;99.90
16881;DHT22;8557;52.068;5.198;2023-02-26T02:52:24;1.30;99.90
16881;DHT22;8557;52.068;5.198;2023-02-26T02:54:57;1.20;99.90
16881;DHT22;8557;52.068;5.198;2023-02-26T02:57:28;1.20;99.90
16881;DHT22;8557;52.068;5.198;2023-02-26T02:59:58;1.20;99.90
16881;DHT22;8557;52.068;5.198;2023-02-26T03:02:32;1.20;99.90
16881;DHT22;8557;52.068;5.198;2023-02-26T03:05:02;1.20;99.90
16881;DHT22;8557;52.068;5.198;2023-02-26T03:07:32;1.20;99.90
16881;DHT22;8557;52.068;5.198;2023-02-26T03:10:00;1.20;99.90
16881;DHT22;8557;52.068;5.198;2023-02-26T03:12:31;1.20;99.90
16881;DHT22;8557;52.068;5.198;2023-02-26T03:14:58;1.20;99.90
16881;DHT22;8557;52.068;5.198;2023-02-26T03:17:31;1.20;99.90
16881;DHT22;8557;52.068;5.198;2023-02-26T03:20:08;1.10;99.90
16881;DHT22;8557;52.068;5.198;2023-02-26T03:22:40;1.00;99.90
16881;DHT22;8557;52.068;5.198;2023-02-26T03:25:11;1.00;99.90
16881;DHT22;8557;52.068;5.198;2023-02-26T03:27:45;1.00;99.90
16881;DHT22;8557;52.068;5.198;2023-02-26T03:30:18;0.90;99.90
16881;DHT22;8557;52.068;5.198;2023-02-26T03:32:53;0.80;99.90
16881;DHT22;8557;52.068;5.198;2023-02-26T03:35:28;1.00;99.90
16881;DHT22;8557;52.068;5.198;2023-02-26T03:38:02;1.00;99.90
16881;DHT22;8557;52.068;5.198;2023-02-26T03:40:33;1.00;99.90
16881;DHT22;8557;52.068;5.198;2023-02-26T03:43:05;1.00;99.90
16881;DHT22;8557;52.068;5.198;2023-02-26T03:45:35;1.00;99.90
16881;DHT22;8557;52.068;5.198;2023-02-26T03:48:07;0.90;99.90
16881;DHT22;8557;52.068;5.198;2023-02-26T03:50:37;0.90;99.90
16881;DHT22;8557;52.068;5.198;2023-02-26T03:53:11;1.00;99.90
16881;DHT22;8557;52.068;5.198;2023-02-26T03:55:41;1.00;99.90
16881;DHT22;8557;52.068;5.198;2023-02-26T03:58:10;0.90;99.90
16881;DHT22;8557;52.068;5.198;2023-02-26T04:00:39;0.80;99.90
16881;DHT22;8557;52.068;5.198;2023-02-26T04:03:11;0.80;99.90
16881;DHT22;8557;52.068;5.198;2023-02-26T04:05:44;0.80;99.90
16881;DHT22;8557;52.068;5.198;2023-02-26T04:08:13;0.70;99.90
16881;DHT22;8557;52.068;5.198;2023-02-26T04:10:44;0.70;99.90
16881;DHT22;8557;52.068;5.198;2023-02-26T04:13:11;0.80;99.90
16881;DHT22;8557;52.068;5.198;2023-02-26T04:15:38;0.90;99.90
16881;DHT22;8557;52.068;5.198;2023-02-26T04:18:05;0.90;99.90
16881;DHT22;8557;52.068;5.198;2023-02-26T04:20:33;0.90;98.90
16881;DHT22;8557;52.068;5.198;2023-02-26T04:23:00;0.80;99.90
16881;DHT22;8557;52.068;5.198;2023-02-26T04:25:26;0.80;99.90
16881;DHT22;8557;52.068;5.198;2023-02-26T04:27:54;0.80;99.90
16881;DHT22;8557;52.068;5.198;2023-02-26T04:30:21;0.90;99.90
16881;DHT22;8557;52.068;5.198;2023-02-26T04:32:47;0.90;97.60
16881;DHT22;8557;52.068;5.198;2023-02-26T04:35:14;0.70;99.90
16881;DHT22;8557;52.068;5.198;2023-02-26T04:37:42;0.60;99.90
16881;DHT22;8557;52.068;5.198;2023-02-26T04:40:10;0.60;99.90
16881;DHT22;8557;52.068;5.198;2023-02-26T04:42:37;0.60;99.90
16881;DHT22;8557;52.068;5.198;2023-02-26T04:45:05;0.50;99.90
16881;DHT22;8557;52.068;5.198;2023-02-26T04:47:32;0.60;99.90
16881;DHT22;8557;52.068;5.198;2023-02-26T04:49:59;0.50;99.90
16881;DHT22;8557;52.068;5.198;2023-02-26T04:52:26;0.60;99.90
16881;DHT22;8557;52.068;5.198;2023-02-26T04:54:54;0.50;99.90
16881;DHT22;8557;52.068;5.198;2023-02-26T04:57:21;0.50;99.90
16881;DHT22;8557;52.068;5.198;2023-02-26T04:59:47;0.60;99.90
16881;DHT22;8557;52.068;5.198;2023-02-26T05:02:14;0.50;99.90
16881;DHT22;8557;52.068;5.198;2023-02-26T05:04:41;0.40;99.90
16881;DHT22;8557;52.068;5.198;2023-02-26T05:07:08;0.40;99.90
16881;DHT22;8557;52.068;5.198;2023-02-26T05:09:34;0.30;99.90
16881;DHT22;8557;52.068;5.198;2023-02-26T05:12:03;0.30;99.90
16881;DHT22;8557;52.068;5.198;2023-02-26T05:14:30;0.20;99.90
16881;DHT22;8557;52.068;5.198;2023-02-26T05:16:56;0.10;99.90
16881;DHT22;8557;52.068;5.198;2023-02-26T05:19:23;0.10;99.90
16881;DHT22;8557;52.068;5.198;2023-02-26T05:21:50;0.20;99.90
16881;DHT22;8557;52.068;5.198;2023-02-26T05:24:17;0.20;99.90
16881;DHT22;8557;52.068;5.198;2023-02-26T05:26:43;0.20;99.90
16881;DHT22;8557;52.068;5.198;2023-02-26T05:29:12;0.20;99.90
16881;DHT22;8557;52.068;5.198;2023-02-26T05:31:39;0.20;99.90
16881;DHT22;8557;52.068;5.198;2023-02-26T05:34:06;0.30;99.90
16881;DHT22;8557;52.068;5.198;2023-02-26T05:36:34;0.10;99.90
16881;DHT22;8557;52.068;5.198;2023-02-26T05:39:00;0.10;99.90
16881;DHT22;8557;52.068;5.198;2023-02-26T05:41:27;0.10;99.90
16881;DHT22;8557;52.068;5.198;2023-02-26T05:43:54;0.10;99.90
16881;DHT22;8557;52.068;5.198;2023-02-26T05:46:22;0.30;99.90
16881;DHT22;8557;52.068;5.198;2023-02-26T05:48:49;0.40;99.90
16881;DHT22;8557;52.068;5.198;2023-02-26T05:51:15;0.30;99.90
16881;DHT22;8557;52.068;5.198;2023-02-26T05:53:42;0.30;99.90
16881;DHT22;8557;52.068;5.198;2023-02-26T05:56:10;0.30;99.90
16881;DHT22;8557;52.068;5.198;2023-02-26T05:58:37;0.20;99.90
16881;DHT22;8557;52.068;5.198;2023-02-26T06:01:04;0.20;99.90
16881;DHT22;8557;52.068;5.198;2023-02-26T06:03:32;0.10;99.90
16881;DHT22;8557;52.068;5.198;2023-02-26T06:05:59;0.10;99.90
16881;DHT22;8557;52.068;5.198;2023-02-26T06:08:26;0.20;99.90
16881;DHT22;8557;52.068;5.198;2023-02-26T06:10:53;0.20;99.90
16881;DHT22;8557;52.068;5.198;2023-02-26T06:13:19;0.10;99.90
16881;DHT22;8557;52.068;5.198;2023-02-26T06:15:48;0.20;99.90
16881;DHT22;8557;52.068;5.198;2023-02-26T06:18:16;0.20;99.90
16881;DHT22;8557;52.068;5.198;2023-02-26T06:20:44;0.20;99.90
16881;DHT22;8557;52.068;5.198;2023-02-26T06:23:11;0.10;99.90
16881;DHT22;8557;52.068;5.198;2023-02-26T06:25:39;0.10;99.90
16881;DHT22;8557;52.068;5.198;2023-02-26T06:28:07;0.00;99.90
16881;DHT22;8557;52.068;5.198;2023-02-26T06:30:34;0.10;99.90
16881;DHT22;8557;52.068;5.198;2023-02-26T06:33:00;0.10;99.90
16881;DHT22;8557;52.068;5.198;2023-02-26T06:35:27;0.10;99.90
16881;DHT22;8557;52.068;5.198;2023-02-26T06:37:56;0.10;99.90
16881;DHT22;8557;52.068;5.198;2023-02-26T06:40:22;0.10;99.90
16881;DHT22;8557;52.068;5.198;2023-02-26T06:42:49;0.10;99.90
16881;DHT22;8557;52.068;5.198;2023-02-26T06:45:16;0.10;99.90
16881;DHT22;8557;52.068;5.198;2023-02-26T06:47:43;0.10;99.90
16881;DHT22;8557;52.068;5.198;2023-02-26T06:50:10;0.20;99.90
16881;DHT22;8557;52.068;5.198;2023-02-26T06:52:37;0.10;99.90
16881;DHT22;8557;52.068;5.198;2023-02-26T06:55:07;0.10;99.90
16881;DHT22;8557;52.068;5.198;2023-02-26T06:57:33;0.00;99.90
16881;DHT22;8557;52.068;5.198;2023-02-26T07:00:00;0.10;99.90
16881;DHT22;8557;52.068;5.198;2023-02-26T07:02:28;0.20;99.90
16881;DHT22;8557;52.068;5.198;2023-02-26T07:04:55;0.30;99.90
16881;DHT22;8557;52.068;5.198;2023-02-26T07:07:22;0.40;99.90
16881;DHT22;8557;52.068;5.198;2023-02-26T07:09:48;0.40;99.90
16881;DHT22;8557;52.068;5.198;2023-02-26T07:12:17;0.30;99.90
16881;DHT22;8557;52.068;5.198;2023-02-26T07:14:44;0.40;99.90
16881;DHT22;8557;52.068;5.198;2023-02-26T07:17:11;0.40;99.90
16881;DHT22;8557;52.068;5.198;2023-02-26T07:19:45;0.40;99.90
16881;DHT22;8557;52.068;5.198;2023-02-26T07:22:12;0.60;99.90
16881;DHT22;8557;52.068;5.198;2023-02-26T07:24:39;0.70;99.90
16881;DHT22;8557;52.068;5.198;2023-02-26T07:27:06;0.70;99.90
16881;DHT22;8557;52.068;5.198;2023-02-26T07:29:34;0.80;99.90
16881;DHT22;8557;52.068;5.198;2023-02-26T07:32:02;0.90;99.90
16881;DHT22;8557;52.068;5.198;2023-02-26T07:34:29;1.00;99.90
16881;DHT22;8557;52.068;5.198;2023-02-26T07:36:56;1.10;99.90
16881;DHT22;8557;52.068;5.198;2023-02-26T07:39:24;1.10;99.90
16881;DHT22;8557;52.068;5.198;2023-02-26T07:41:51;1.10;99.90
16881;DHT22;8557;52.068;5.198;2023-02-26T07:44:19;1.20;99.90
16881;DHT22;8557;52.068;5.198;2023-02-26T07:46:47;1.30;99.90
16881;DHT22;8557;52.068;5.198;2023-02-26T07:49:15;1.30;99.90
16881;DHT22;8557;52.068;5.198;2023-02-26T07:51:41;1.40;99.90
16881;DHT22;8557;52.068;5.198;2023-02-26T07:54:10;1.50;99.90
16881;DHT22;8557;52.068;5.198;2023-02-26T07:56:38;1.50;97.50
16881;DHT22;8557;52.068;5.198;2023-02-26T07:59:06;1.70;93.50
16881;DHT22;8557;52.068;5.198;2023-02-26T08:01:33;1.70;85.10
16881;DHT22;8557;52.068;5.198;2023-02-26T08:04:01;2.10;92.10
16881;DHT22;8557;52.068;5.198;2023-02-26T08:11:23;2.20;73.10
16881;DHT22;8557;52.068;5.198;2023-02-26T08:13:50;2.10;51.40
16881;DHT22;8557;52.068;5.198;2023-02-26T08:16:17;2.00;40.10
16881;DHT22;8557;52.068;5.198;2023-02-26T08:18:43;2.10;53.00
16881;DHT22;8557;52.068;5.198;2023-02-26T08:21:12;2.20;55.70
16881;DHT22;8557;52.068;5.198;2023-02-26T08:23:38;2.30;79.20
16881;DHT22;8557;52.068;5.198;2023-02-26T08:26:07;2.40;32.80
16881;DHT22;8557;52.068;5.198;2023-02-26T08:28:35;2.60;57.30
16881;DHT22;8557;52.068;5.198;2023-02-26T08:31:02;2.80;54.20
16881;DHT22;8557;52.068;5.198;2023-02-26T08:33:29;2.50;27.50
16881;DHT22;8557;52.068;5.198;2023-02-26T08:35:56;2.60;29.00
16881;DHT22;8557;52.068;5.198;2023-02-26T08:38:25;2.60;27.90
16881;DHT22;8557;52.068;5.198;2023-02-26T08:40:52;2.60;26.30
16881;DHT22;8557;52.068;5.198;2023-02-26T08:43:19;2.60;29.10
16881;DHT22;8557;52.068;5.198;2023-02-26T08:45:46;2.50;26.00
16881;DHT22;8557;52.068;5.198;2023-02-26T08:48:14;2.90;65.70
16881;DHT22;8557;52.068;5.198;2023-02-26T08:50:41;2.80;30.90
16881;DHT22;8557;52.068;5.198;2023-02-26T08:53:08;2.90;27.80
16881;DHT22;8557;52.068;5.198;2023-02-26T08:55:36;3.00;14.00
16881;DHT22;8557;52.068;5.198;2023-02-26T08:58:03;3.00;1.00
16881;DHT22;8557;52.068;5.198;2023-02-26T09:00:31;3.00;8.40
16881;DHT22;8557;52.068;5.198;2023-02-26T09:02:57;3.10;1.00
16881;DHT22;8557;52.068;5.198;2023-02-26T09:05:24;3.20;3.00
16881;DHT22;8557;52.068;5.198;2023-02-26T09:07:51;3.30;1.00
16881;DHT22;8557;52.068;5.198;2023-02-26T09:10:18;3.30;8.80
16881;DHT22;8557;52.068;5.198;2023-02-26T09:12:47;3.40;5.60
16881;DHT22;8557;52.068;5.198;2023-02-26T09:15:14;3.40;1.00
16881;DHT22;8557;52.068;5.198;2023-02-26T09:17:41;3.50;44.30
16881;DHT22;8557;52.068;5.198;2023-02-26T09:20:10;3.50;51.90
16881;DHT22;8557;52.068;5.198;2023-02-26T09:22:39;3.60;75.50
16881;DHT22;8557;52.068;5.198;2023-02-26T09:25:07;3.70;53.90
16881;DHT22;8557;52.068;5.198;2023-02-26T09:27:34;3.70;90.70
16881;DHT22;8557;52.068;5.198;2023-02-26T09:30:02;3.80;57.70
16881;DHT22;8557;52.068;5.198;2023-02-26T09:32:29;3.80;56.10
16881;DHT22;8557;52.068;5.198;2023-02-26T09:34:56;3.90;70.70
16881;DHT22;8557;52.068;5.198;2023-02-26T09:37:23;4.00;55.10
16881;DHT22;8557;52.068;5.198;2023-02-26T09:39:50;4.00;7.90
16881;DHT22;8557;52.068;5.198;2023-02-26T09:42:25;4.10;29.40
16881;DHT22;8557;52.068;5.198;2023-02-26T09:44:55;4.20;85.80
16881;DHT22;8557;52.068;5.198;2023-02-26T09:47:28;4.20;26.10
16881;DHT22;8557;52.068;5.198;2023-02-26T09:50:00;4.30;39.20
16881;DHT22;8557;52.068;5.198;2023-02-26T09:52:34;4.40;44.80
16881;DHT22;8557;52.068;5.198;2023-02-26T09:55:08;4.40;21.20
16881;DHT22;8557;52.068;5.198;2023-02-26T09:57:40;4.40;27.50
16881;DHT22;8557;52.068;5.198;2023-02-26T10:00:22;4.40;1.00
16881;DHT22;8557;52.068;5.198;2023-02-26T10:02:57;4.40;1.00
16881;DHT22;8557;52.068;5.198;2023-02-26T10:05:34;4.50;1.00
16881;DHT22;8557;52.068;5.198;2023-02-26T10:08:06;4.60;1.00
16881;DHT22;8557;52.068;5.198;2023-02-26T10:10:37;4.60;1.00
16881;DHT22;8557;52.068;5.198;2023-02-26T10:13:10;4.70;1.00
16881;DHT22;8557;52.068;5.198;2023-02-26T10:15:43;4.70;1.00
16881;DHT22;8557;52.068;5.198;2023-02-26T10:18:17;4.70;1.00
16881;DHT22;8557;52.068;5.198;2023-02-26T10:20:51;4.80;1.00
16881;DHT22;8557;52.068;5.198;2023-02-26T10:23:22;4.90;1.00
16881;DHT22;8557;52.068;5.198;2023-02-26T10:25:53;5.10;1.00
16881;DHT22;8557;52.068;5.198;2023-02-26T10:28:34;5.20;1.00
16881;DHT22;8557;52.068;5.198;2023-02-26T10:31:10;5.30;1.00
16881;DHT22;8557;52.068;5.198;2023-02-26T10:33:45;5.50;1.00
16881;DHT22;8557;52.068;5.198;2023-02-26T10:36:18;5.50;1.00
16881;DHT22;8557;52.068;5.198;2023-02-26T10:38:48;5.60;1.00
16881;DHT22;8557;52.068;5.198;2023-02-26T10:41:20;5.60;1.00
16881;DHT22;8557;52.068;5.198;2023-02-26T10:43:51;5.60;1.00
16881;DHT22;8557;52.068;5.198;2023-02-26T10:46:26;5.70;1.00
16881;DHT22;8557;52.068;5.198;2023-02-26T10:49:17;5.80;1.00
16881;DHT22;8557;52.068;5.198;2023-02-26T10:51:47;5.80;1.00
16881;DHT22;8557;52.068;5.198;2023-02-26T10:54:20;5.80;1.00
16881;DHT22;8557;52.068;5.198;2023-02-26T10:56:48;5.80;1.00
16881;DHT22;8557;52.068;5.198;2023-02-26T10:59:15;5.80;1.00
16881;DHT22;8557;52.068;5.198;2023-02-26T11:01:42;5.90;1.00
16881;DHT22;8557;52.068;5.198;2023-02-26T11:04:13;5.90;1.00
16881;DHT22;8557;52.068;5.198;2023-02-26T11:06:45;6.00;1.00
16881;DHT22;8557;52.068;5.198;2023-02-26T11:09:18;6.10;1.00
16881;DHT22;8557;52.068;5.198;2023-02-26T11:11:47;6.30;1.00
16881;DHT22;8557;52.068;5.198;2023-02-26T11:14:16;6.60;1.00
16881;DHT22;8557;52.068;5.198;2023-02-26T11:16:47;6.70;1.00
16881;DHT22;8557;52.068;5.198;2023-02-26T11:19:19;7.00;1.00
16881;DHT22;8557;52.068;5.198;2023-02-26T11:21:50;7.20;1.00
16881;DHT22;8557;52.068;5.198;2023-02-26T11:24:23;7.20;1.00
16881;DHT22;8557;52.068;5.198;2023-02-26T11:26:54;7.20;1.00
16881;DHT22;8557;52.068;5.198;2023-02-26T11:29:22;7.00;1.00
16881;DHT22;8557;52.068;5.198;2023-02-26T11:31:51;6.70;1.00
16881;DHT22;8557;52.068;5.198;2023-02-26T11:34:24;6.60;1.00
16881;DHT22;8557;52.068;5.198;2023-02-26T11:36:51;6.60;1.00
16881;DHT22;8557;52.068;5.198;2023-02-26T11:39:21;6.60;1.00
16881;DHT22;8557;52.068;5.198;2023-02-26T11:41:51;6.50;1.00
16881;DHT22;8557;52.068;5.198;2023-02-26T11:44:23;6.30;1.00
16881;DHT22;8557;52.068;5.198;2023-02-26T11:46:53;6.30;1.00
16881;DHT22;8557;52.068;5.198;2023-02-26T11:49:23;6.10;1.00
16881;DHT22;8557;52.068;5.198;2023-02-26T11:52:04;6.10;1.00
16881;DHT22;8557;52.068;5.198;2023-02-26T11:54:34;6.00;1.00
16881;DHT22;8557;52.068;5.198;2023-02-26T11:57:04;6.10;1.00
16881;DHT22;8557;52.068;5.198;2023-02-26T11:59:33;6.30;1.00
16881;DHT22;8557;52.068;5.198;2023-02-26T12:02:02;6.40;1.00
16881;DHT22;8557;52.068;5.198;2023-02-26T12:04:32;6.60;1.00
16881;DHT22;8557;52.068;5.198;2023-02-26T12:06:59;6.70;1.00
16881;DHT22;8557;52.068;5.198;2023-02-26T12:09:26;6.80;1.00
16881;DHT22;8557;52.068;5.198;2023-02-26T12:12:16;6.90;1.00
16881;DHT22;8557;52.068;5.198;2023-02-26T12:14:57;7.00;1.00
16881;DHT22;8557;52.068;5.198;2023-02-26T12:17:45;7.10;1.00
16881;DHT22;8557;52.068;5.198;2023-02-26T12:20:20;7.20;1.00
16881;DHT22;8557;52.068;5.198;2023-02-26T12:22:59;7.30;1.00
16881;DHT22;8557;52.068;5.198;2023-02-26T12:25:53;7.40;1.00
16881;DHT22;8557;52.068;5.198;2023-02-26T12:28:49;7.70;1.00
16881;DHT22;8557;52.068;5.198;2023-02-26T12:31:50;7.70;1.00
16881;DHT22;8557;52.068;5.198;2023-02-26T12:34:52;7.90;1.00
16881;DHT22;8557;52.068;5.198;2023-02-26T12:37:34;8.10;1.00
16881;DHT22;8557;52.068;5.198;2023-02-26T12:40:12;8.20;99.90
16881;DHT22;8557;52.068;5.198;2023-02-26T12:42:49;8.30;99.90
16881;DHT22;8557;52.068;5.198;2023-02-26T12:45:35;8.40;1.00
16881;DHT22;8557;52.068;5.198;2023-02-26T12:48:36;8.60;1.00
16881;DHT22;8557;52.068;5.198;2023-02-26T12:51:14;8.80;1.00
16881;DHT22;8557;52.068;5.198;2023-02-26T12:53:56;9.20;1.00
16881;DHT22;8557;52.068;5.198;2023-02-26T12:56:40;9.30;1.00
16881;DHT22;8557;52.068;5.198;2023-02-26T12:59:29;9.40;99.90
16881;DHT22;8557;52.068;5.198;2023-02-26T13:02:19;10.00;99.90
16881;DHT22;8557;52.068;5.198;2023-02-26T13:05:23;10.90;99.90
16881;DHT22;8557;52.068;5.198;2023-02-26T13:08:04;12.90;99.90
16881;DHT22;8557;52.068;5.198;2023-02-26T13:10:50;15.90;99.90
16881;DHT22;8557;52.068;5.198;2023-02-26T13:13:50;18.50;92.70
16881;DHT22;8557;52.068;5.198;2023-02-26T13:16:29;18.60;1.00
16881;DHT22;8557;52.068;5.198;2023-02-26T13:19:02;21.60;1.00
16881;DHT22;8557;52.068;5.198;2023-02-26T13:21:34;19.90;1.00
16881;DHT22;8557;52.068;5.198;2023-02-26T13:24:04;18.30;99.90
16881;DHT22;8557;52.068;5.198;2023-02-26T13:26:35;17.20;99.90
16881;DHT22;8557;52.068;5.198;2023-02-26T13:29:05;19.50;92.60
16881;DHT22;8557;52.068;5.198;2023-02-26T13:31:37;21.20;34.70
16881;DHT22;8557;52.068;5.198;2023-02-26T13:34:10;22.90;17.30
16881;DHT22;8557;52.068;5.198;2023-02-26T13:36:39;23.90;1.00
16881;DHT22;8557;52.068;5.198;2023-02-26T13:39:30;25.00;1.00
16881;DHT22;8557;52.068;5.198;2023-02-26T13:42:05;25.20;99.90
16881;DHT22;8557;52.068;5.198;2023-02-26T13:44:38;24.60;99.90
16881;DHT22;8557;52.068;5.198;2023-02-26T13:47:27;24.60;99.90
16881;DHT22;8557;52.068;5.198;2023-02-26T13:50:09;24.40;57.40
16881;DHT22;8557;52.068;5.198;2023-02-26T13:52:50;24.10;1.00
16881;DHT22;8557;52.068;5.198;2023-02-26T13:55:37;24.00;1.00
16881;DHT22;8557;52.068;5.198;2023-02-26T13:58:28;21.50;1.00
16881;DHT22;8557;52.068;5.198;2023-02-26T14:01:03;22.40;1.00
16881;DHT22;8557;52.068;5.198;2023-02-26T14:03:33;23.30;1.00
16881;DHT22;8557;52.068;5.198;2023-02-26T14:06:19;23.40;1.00
16881;DHT22;8557;52.068;5.198;2023-02-26T14:08:50;24.20;1.00
16881;DHT22;8557;52.068;5.198;2023-02-26T14:14:25;23.60;1.00
16881;DHT22;8557;52.068;5.198;2023-02-26T14:17:25;24.30;99.90
16881;DHT22;8557;52.068;5.198;2023-02-26T14:20:17;24.20;99.90
16881;DHT22;8557;52.068;5.198;2023-02-26T14:22:47;24.10;99.90
16881;DHT22;8557;52.068;5.198;2023-02-26T14:25:20;24.30;99.90
16881;DHT22;8557;52.068;5.198;2023-02-26T14:28:17;21.90;99.90
16881;DHT22;8557;52.068;5.198;2023-02-26T14:30:50;21.90;99.90
16881;DHT22;8557;52.068;5.198;2023-02-26T14:33:18;20.60;99.90
16881;DHT22;8557;52.068;5.198;2023-02-26T14:35:53;20.10;99.90
16881;DHT22;8557;52.068;5.198;2023-02-26T14:38:23;17.60;1.00
16881;DHT22;8557;52.068;5.198;2023-02-26T14:40:54;16.60;1.00
16881;DHT22;8557;52.068;5.198;2023-02-26T14:43:32;15.50;1.00
16881;DHT22;8557;52.068;5.198;2023-02-26T14:46:02;15.40;1.00
16881;DHT22;8557;52.068;5.198;2023-02-26T14:48:30;16.70;14.50
16881;DHT22;8557;52.068;5.198;2023-02-26T14:51:10;16.70;36.50
16881;DHT22;8557;52.068;5.198;2023-02-26T14:54:05;18.00;81.60
16881;DHT22;8557;52.068;5.198;2023-02-26T14:56:47;18.50;94.50
16881;DHT22;8557;52.068;5.198;2023-02-26T14:59:32;19.30;94.30
16881;DHT22;8557;52.068;5.198;2023-02-26T15:02:16;19.80;99.90
16881;DHT22;8557;52.068;5.198;2023-02-26T15:07:55;18.50;1.00
16881;DHT22;8557;52.068;5.198;2023-02-26T15:10:38;18.50;1.00
16881;DHT22;8557;52.068;5.198;2023-02-26T15:13:23;17.70;1.00
16881;DHT22;8557;52.068;5.198;2023-02-26T15:15:55;17.00;1.00
16881;DHT22;8557;52.068;5.198;2023-02-26T15:18:46;16.80;1.00
16881;DHT22;8557;52.068;5.198;2023-02-26T15:21:21;15.70;1.00
16881;DHT22;8557;52.068;5.198;2023-02-26T15:23:53;15.10;1.00
16881;DHT22;8557;52.068;5.198;2023-02-26T15:26:24;14.40;1.00
16881;DHT22;8557;52.068;5.198;2023-02-26T15:28:52;15.10;1.00
16881;DHT22;8557;52.068;5.198;2023-02-26T15:31:28;14.50;1.00
16881;DHT22;8557;52.068;5.198;2023-02-26T15:33:57;13.80;1.00
16881;DHT22;8557;52.068;5.198;2023-02-26T15:36:24;13.10;4.20
16881;DHT22;8557;52.068;5.198;2023-02-26T15:38:56;12.30;27.90
16881;DHT22;8557;52.068;5.198;2023-02-26T15:41:25;11.50;99.90
16881;DHT22;8557;52.068;5.198;2023-02-26T15:43:56;10.80;99.90
16881;DHT22;8557;52.068;5.198;2023-02-26T15:46:28;10.20;99.90
16881;DHT22;8557;52.068;5.198;2023-02-26T15:48:59;9.90;99.90
16881;DHT22;8557;52.068;5.198;2023-02-26T15:51:27;9.80;99.90
16881;DHT22;8557;52.068;5.198;2023-02-26T15:53:54;9.70;1.00
16881;DHT22;8557;52.068;5.198;2023-02-26T15:56:29;9.70;1.00
16881;DHT22;8557;52.068;5.198;2023-02-26T15:58:59;9.50;1.00
16881;DHT22;8557;52.068;5.198;2023-02-26T16:01:28;9.20;1.00
16881;DHT22;8557;52.068;5.198;2023-02-26T16:03:58;8.70;1.00
16881;DHT22;8557;52.068;5.198;2023-02-26T16:06:30;8.70;99.90
16881;DHT22;8557;52.068;5.198;2023-02-26T16:08:58;8.60;1.00
16881;DHT22;8557;52.068;5.198;2023-02-26T16:11:29;8.50;99.90
16881;DHT22;8557;52.068;5.198;2023-02-26T16:13:58;8.00;9.60
16881;DHT22;8557;52.068;5.198;2023-02-26T16:16:27;7.50;1.00
16881;DHT22;8557;52.068;5.198;2023-02-26T16:18:56;7.70;99.90
16881;DHT22;8557;52.068;5.198;2023-02-26T16:21:31;8.10;99.90
16881;DHT22;8557;52.068;5.198;2023-02-26T16:24:00;8.00;1.00
16881;DHT22;8557;52.068;5.198;2023-02-26T16:26:31;7.30;1.00
16881;DHT22;8557;52.068;5.198;2023-02-26T16:29:01;7.20;1.00
16881;DHT22;8557;52.068;5.198;2023-02-26T16:31:30;7.00;1.00
16881;DHT22;8557;52.068;5.198;2023-02-26T16:34:01;7.20;1.00
16881;DHT22;8557;52.068;5.198;2023-02-26T16:36:31;6.60;99.90
16881;DHT22;8557;52.068;5.198;2023-02-26T16:39:12;6.50;99.90
16881;DHT22;8557;52.068;5.198;2023-02-26T16:41:46;6.40;99.90
16881;DHT22;8557;52.068;5.198;2023-02-26T16:44:36;6.40;1.00
16881;DHT22;8557;52.068;5.198;2023-02-26T16:47:05;6.40;1.00
16881;DHT22;8557;52.068;5.198;2023-02-26T16:49:35;6.40;1.00